sensor_id;sensor_type;location;lat;lon;timestamp;P1;durP1;ratioP1;P2;durP2;ratioP2
16139;SDS011;8175;49.326;12.690;2023-05-10T00:00:37;2.90;;;2.60;;
16139;SDS011;8175;49.326;12.690;2023-05-10T00:03:03;3.53;;;2.57;;
16139;SDS011;8175;49.326;12.690;2023-05-10T00:05:29;4.43;;;3.53;;
16139;SDS011;8175;49.326;12.690;2023-05-10T00:07:56;3.03;;;2.73;;
16139;SDS011;8175;49.326;12.690;2023-05-10T00:10:21;3.20;;;2.90;;
16139;SDS011;8175;49.326;12.690;2023-05-10T00:12:47;2.70;;;2.40;;
16139;SDS011;8175;49.326;12.690;2023-05-10T00:15:13;3.20;;;2.90;;
16139;SDS011;8175;49.326;12.690;2023-05-10T00:17:38;4.63;;;3.20;;
16139;SDS011;8175;49.326;12.690;2023-05-10T00:20:04;3.67;;;2.90;;
16139;SDS011;8175;49.326;12.690;2023-05-10T00:22:31;3.00;;;2.80;;
16139;SDS011;8175;49.326;12.690;2023-05-10T00:24:57;3.03;;;2.70;;
16139;SDS011;8175;49.326;12.690;2023-05-10T00:27:23;2.97;;;2.67;;
16139;SDS011;8175;49.326;12.690;2023-05-10T00:29:49;3.40;;;2.80;;
16139;SDS011;8175;49.326;12.690;2023-05-10T00:32:14;2.70;;;2.50;;
16139;SDS011;8175;49.326;12.690;2023-05-10T00:34:40;3.30;;;3.00;;
16139;SDS011;8175;49.326;12.690;2023-05-10T00:37:05;3.03;;;2.73;;
16139;SDS011;8175;49.326;12.690;2023-05-10T00:39:31;3.70;;;3.07;;
16139;SDS011;8175;49.326;12.690;2023-05-10T00:41:57;3.93;;;2.67;;
16139;SDS011;8175;49.326;12.690;2023-05-10T00:44:22;2.70;;;2.50;;
16139;SDS011;8175;49.326;12.690;2023-05-10T00:46:48;3.20;;;2.90;;
16139;SDS011;8175;49.326;12.690;2023-05-10T00:49:14;3.63;;;3.00;;
16139;SDS011;8175;49.326;12.690;2023-05-10T00:51:41;3.53;;;2.80;;
16139;SDS011;8175;49.326;12.690;2023-05-10T00:54:08;3.20;;;2.90;;
16139;SDS011;8175;49.326;12.690;2023-05-10T00:56:36;3.00;;;2.70;;
16139;SDS011;8175;49.326;12.690;2023-05-10T00:59:02;3.27;;;2.80;;
16139;SDS011;8175;49.326;12.690;2023-05-10T01:01:28;3.53;;;3.23;;
16139;SDS011;8175;49.326;12.690;2023-05-10T01:03:54;2.73;;;2.47;;
16139;SDS011;8175;49.326;12.690;2023-05-10T01:06:20;4.73;;;3.00;;
16139;SDS011;8175;49.326;12.690;2023-05-10T01:08:46;4.80;;;2.90;;
16139;SDS011;8175;49.326;12.690;2023-05-10T01:11:12;3.43;;;3.00;;
16139;SDS011;8175;49.326;12.690;2023-05-10T01:13:39;3.17;;;2.83;;
16139;SDS011;8175;49.326;12.690;2023-05-10T01:16:07;4.77;;;3.07;;
16139;SDS011;8175;49.326;12.690;2023-05-10T01:18:34;3.27;;;2.90;;
16139;SDS011;8175;49.326;12.690;2023-05-10T01:21:08;4.10;;;3.60;;
16139;SDS011;8175;49.326;12.690;2023-05-10T01:37:36;3.53;;;3.03;;
16139;SDS011;8175;49.326;12.690;2023-05-10T01:43:00;3.77;;;2.93;;
16139;SDS011;8175;49.326;12.690;2023-05-10T01:45:35;2.70;;;2.50;;
16139;SDS011;8175;49.326;12.690;2023-05-10T01:48:07;4.77;;;3.40;;
16139;SDS011;8175;49.326;12.690;2023-05-10T01:50:35;2.70;;;2.50;;
16139;SDS011;8175;49.326;12.690;2023-05-10T01:53:04;2.90;;;2.70;;
16139;SDS011;8175;49.326;12.690;2023-05-10T01:55:34;3.13;;;2.83;;
16139;SDS011;8175;49.326;12.690;2023-05-10T01:58:06;3.47;;;3.10;;
16139;SDS011;8175;49.326;12.690;2023-05-10T02:00:35;3.93;;;2.90;;
16139;SDS011;8175;49.326;12.690;2023-05-10T02:03:04;3.50;;;3.20;;
16139;SDS011;8175;49.326;12.690;2023-05-10T02:05:32;3.60;;;3.10;;
16139;SDS011;8175;49.326;12.690;2023-05-10T02:07:59;3.60;;;3.30;;
16139;SDS011;8175;49.326;12.690;2023-05-10T05:13:15;7.23;;;6.33;;
16139;SDS011;8175;49.326;12.690;2023-05-10T05:15:41;5.93;;;5.33;;
16139;SDS011;8175;49.326;12.690;2023-05-10T05:18:06;6.70;;;5.07;;
16139;SDS011;8175;49.326;12.690;2023-05-10T05:20:32;5.77;;;5.27;;
16139;SDS011;8175;49.326;12.690;2023-05-10T05:22:59;5.53;;;5.00;;
16139;SDS011;8175;49.326;12.690;2023-05-10T05:25:25;5.17;;;4.53;;
16139;SDS011;8175;49.326;12.690;2023-05-10T05:27:50;4.27;;;3.87;;
16139;SDS011;8175;49.326;12.690;2023-05-10T05:30:16;4.97;;;4.47;;
16139;SDS011;8175;49.326;12.690;2023-05-10T05:32:42;6.47;;;4.17;;
16139;SDS011;8175;49.326;12.690;2023-05-10T05:35:07;6.60;;;4.40;;
16139;SDS011;8175;49.326;12.690;2023-05-10T05:37:33;4.97;;;4.23;;
16139;SDS011;8175;49.326;12.690;2023-05-10T05:39:59;5.17;;;4.00;;
16139;SDS011;8175;49.326;12.690;2023-05-10T05:42:26;4.67;;;4.27;;
16139;SDS011;8175;49.326;12.690;2023-05-10T05:44:52;5.13;;;4.63;;
16139;SDS011;8175;49.326;12.690;2023-05-10T05:47:18;5.03;;;4.53;;
16139;SDS011;8175;49.326;12.690;2023-05-10T05:49:43;5.97;;;4.87;;
16139;SDS011;8175;49.326;12.690;2023-05-10T05:52:10;4.93;;;4.43;;
16139;SDS011;8175;49.326;12.690;2023-05-10T05:54:36;4.43;;;4.03;;
16139;SDS011;8175;49.326;12.690;2023-05-10T05:57:02;4.80;;;4.30;;
16139;SDS011;8175;49.326;12.690;2023-05-10T05:59:28;5.10;;;4.60;;
16139;SDS011;8175;49.326;12.690;2023-05-10T06:01:53;4.80;;;4.40;;
16139;SDS011;8175;49.326;12.690;2023-05-10T06:04:19;4.63;;;4.23;;
16139;SDS011;8175;49.326;12.690;2023-05-10T06:06:45;4.97;;;4.47;;
16139;SDS011;8175;49.326;12.690;2023-05-10T06:09:11;5.13;;;4.10;;
16139;SDS011;8175;49.326;12.690;2023-05-10T06:11:36;5.17;;;4.67;;
16139;SDS011;8175;49.326;12.690;2023-05-10T06:14:02;5.17;;;4.37;;
16139;SDS011;8175;49.326;12.690;2023-05-10T06:16:33;5.10;;;4.60;;
16139;SDS011;8175;49.326;12.690;2023-05-10T06:18:59;4.40;;;4.00;;
16139;SDS011;8175;49.326;12.690;2023-05-10T06:21:24;4.70;;;4.30;;
16139;SDS011;8175;49.326;12.690;2023-05-10T06:23:50;4.87;;;4.37;;
16139;SDS011;8175;49.326;12.690;2023-05-10T06:26:16;4.97;;;4.57;;
16139;SDS011;8175;49.326;12.690;2023-05-10T06:28:41;5.60;;;5.10;;
16139;SDS011;8175;49.326;12.690;2023-05-10T06:31:07;5.50;;;4.73;;
16139;SDS011;8175;49.326;12.690;2023-05-10T06:33:33;6.10;;;5.50;;
16139;SDS011;8175;49.326;12.690;2023-05-10T06:35:59;6.00;;;5.40;;
16139;SDS011;8175;49.326;12.690;2023-05-10T06:38:25;6.70;;;6.03;;
16139;SDS011;8175;49.326;12.690;2023-05-10T06:40:51;6.80;;;6.03;;
16139;SDS011;8175;49.326;12.690;2023-05-10T06:43:16;7.10;;;5.57;;
16139;SDS011;8175;49.326;12.690;2023-05-10T06:45:42;8.50;;;5.30;;
16139;SDS011;8175;49.326;12.690;2023-05-10T06:48:08;6.07;;;5.47;;
16139;SDS011;8175;49.326;12.690;2023-05-10T06:50:34;6.67;;;5.97;;
16139;SDS011;8175;49.326;12.690;2023-05-10T06:53:00;7.20;;;6.07;;
16139;SDS011;8175;49.326;12.690;2023-05-10T06:55:26;6.77;;;6.07;;
16139;SDS011;8175;49.326;12.690;2023-05-10T06:57:52;10.77;;;7.33;;
16139;SDS011;8175;49.326;12.690;2023-05-10T07:00:18;9.00;;;7.43;;
16139;SDS011;8175;49.326;12.690;2023-05-10T07:02:45;6.63;;;6.03;;
16139;SDS011;8175;49.326;12.690;2023-05-10T07:05:10;9.13;;;6.60;;
16139;SDS011;8175;49.326;12.690;2023-05-10T07:07:36;7.50;;;6.07;;
16139;SDS011;8175;49.326;12.690;2023-05-10T07:10:02;10.33;;;7.60;;
16139;SDS011;8175;49.326;12.690;2023-05-10T07:12:28;8.77;;;6.70;;
16139;SDS011;8175;49.326;12.690;2023-05-10T07:14:54;6.90;;;6.20;;
16139;SDS011;8175;49.326;12.690;2023-05-10T07:17:20;7.57;;;6.87;;
16139;SDS011;8175;49.326;12.690;2023-05-10T07:19:45;7.87;;;6.73;;
16139;SDS011;8175;49.326;12.690;2023-05-10T07:22:11;8.70;;;7.17;;
16139;SDS011;8175;49.326;12.690;2023-05-10T07:24:37;11.80;;;10.40;;
16139;SDS011;8175;49.326;12.690;2023-05-10T07:27:02;8.20;;;7.37;;
16139;SDS011;8175;49.326;12.690;2023-05-10T07:29:29;11.83;;;8.33;;
16139;SDS011;8175;49.326;12.690;2023-05-10T07:31:54;10.07;;;9.07;;
16139;SDS011;8175;49.326;12.690;2023-05-10T07:34:20;9.90;;;8.90;;
16139;SDS011;8175;49.326;12.690;2023-05-10T07:36:46;9.53;;;8.60;;
16139;SDS011;8175;49.326;12.690;2023-05-10T07:39:12;9.67;;;8.40;;
16139;SDS011;8175;49.326;12.690;2023-05-10T07:41:37;8.10;;;6.70;;
16139;SDS011;8175;49.326;12.690;2023-05-10T07:44:03;8.10;;;7.30;;
16139;SDS011;8175;49.326;12.690;2023-05-10T07:46:29;8.20;;;7.40;;
16139;SDS011;8175;49.326;12.690;2023-05-10T07:48:55;8.10;;;7.30;;
16139;SDS011;8175;49.326;12.690;2023-05-10T07:51:21;7.87;;;7.10;;
16139;SDS011;8175;49.326;12.690;2023-05-10T07:53:46;6.83;;;6.13;;
16139;SDS011;8175;49.326;12.690;2023-05-10T07:56:25;9.80;;;7.50;;
16139;SDS011;8175;49.326;12.690;2023-05-10T07:59:03;7.77;;;6.97;;
16139;SDS011;8175;49.326;12.690;2023-05-10T08:01:31;8.60;;;7.53;;
16139;SDS011;8175;49.326;12.690;2023-05-10T08:03:58;8.83;;;7.90;;
16139;SDS011;8175;49.326;12.690;2023-05-10T08:06:23;9.17;;;7.33;;
16139;SDS011;8175;49.326;12.690;2023-05-10T08:08:51;8.57;;;7.77;;
16139;SDS011;8175;49.326;12.690;2023-05-10T08:11:18;7.77;;;7.00;;
16139;SDS011;8175;49.326;12.690;2023-05-10T08:13:45;10.27;;;9.13;;
16139;SDS011;8175;49.326;12.690;2023-05-10T08:16:11;11.73;;;9.00;;
16139;SDS011;8175;49.326;12.690;2023-05-10T08:18:37;11.63;;;8.77;;
16139;SDS011;8175;49.326;12.690;2023-05-10T08:21:04;9.80;;;8.80;;
16139;SDS011;8175;49.326;12.690;2023-05-10T08:23:29;11.27;;;8.70;;
16139;SDS011;8175;49.326;12.690;2023-05-10T08:25:55;9.87;;;8.47;;
16139;SDS011;8175;49.326;12.690;2023-05-10T08:28:21;8.63;;;7.77;;
16139;SDS011;8175;49.326;12.690;2023-05-10T08:30:46;9.70;;;8.50;;
16139;SDS011;8175;49.326;12.690;2023-05-10T08:33:12;11.27;;;9.87;;
16139;SDS011;8175;49.326;12.690;2023-05-10T08:35:37;10.63;;;9.20;;
16139;SDS011;8175;49.326;12.690;2023-05-10T08:38:03;10.37;;;9.07;;
16139;SDS011;8175;49.326;12.690;2023-05-10T08:40:29;11.17;;;10.07;;
16139;SDS011;8175;49.326;12.690;2023-05-10T08:43:04;11.07;;;9.43;;
16139;SDS011;8175;49.326;12.690;2023-05-10T08:45:32;10.20;;;8.80;;
16139;SDS011;8175;49.326;12.690;2023-05-10T08:48:01;11.27;;;9.67;;
16139;SDS011;8175;49.326;12.690;2023-05-10T08:50:29;11.67;;;9.73;;
16139;SDS011;8175;49.326;12.690;2023-05-10T08:52:57;10.37;;;9.10;;
16139;SDS011;8175;49.326;12.690;2023-05-10T08:55:25;9.20;;;7.67;;
16139;SDS011;8175;49.326;12.690;2023-05-10T08:57:51;10.03;;;8.90;;
16139;SDS011;8175;49.326;12.690;2023-05-10T09:00:17;8.83;;;7.97;;
16139;SDS011;8175;49.326;12.690;2023-05-10T09:02:44;9.00;;;8.10;;
16139;SDS011;8175;49.326;12.690;2023-05-10T09:05:11;7.90;;;7.00;;
16139;SDS011;8175;49.326;12.690;2023-05-10T09:07:37;7.77;;;6.97;;
16139;SDS011;8175;49.326;12.690;2023-05-10T09:10:03;8.37;;;6.90;;
16139;SDS011;8175;49.326;12.690;2023-05-10T09:12:29;9.07;;;8.17;;
16139;SDS011;8175;49.326;12.690;2023-05-10T09:14:55;9.20;;;8.13;;
16139;SDS011;8175;49.326;12.690;2023-05-10T09:17:24;9.47;;;8.07;;
16139;SDS011;8175;49.326;12.690;2023-05-10T09:19:56;9.00;;;7.97;;
16139;SDS011;8175;49.326;12.690;2023-05-10T09:22:23;7.70;;;7.00;;
16139;SDS011;8175;49.326;12.690;2023-05-10T09:25:03;9.43;;;8.43;;
16139;SDS011;8175;49.326;12.690;2023-05-10T09:27:32;7.73;;;7.03;;
16139;SDS011;8175;49.326;12.690;2023-05-10T09:29:58;7.77;;;5.60;;
16139;SDS011;8175;49.326;12.690;2023-05-10T09:35:22;8.77;;;6.23;;
16139;SDS011;8175;49.326;12.690;2023-05-10T09:37:50;6.90;;;6.07;;
16139;SDS011;8175;49.326;12.690;2023-05-10T09:40:17;6.63;;;5.77;;
16139;SDS011;8175;49.326;12.690;2023-05-10T09:42:52;4.63;;;4.23;;
16139;SDS011;8175;49.326;12.690;2023-05-10T09:45:31;4.83;;;4.43;;
16139;SDS011;8175;49.326;12.690;2023-05-10T09:47:58;4.07;;;3.60;;
16139;SDS011;8175;49.326;12.690;2023-05-10T09:50:25;4.27;;;3.93;;
16139;SDS011;8175;49.326;12.690;2023-05-10T09:52:52;5.00;;;4.50;;
16139;SDS011;8175;49.326;12.690;2023-05-10T09:55:19;4.73;;;4.10;;
16139;SDS011;8175;49.326;12.690;2023-05-10T09:57:47;3.63;;;3.33;;
16139;SDS011;8175;49.326;12.690;2023-05-10T10:00:20;4.10;;;3.80;;
16139;SDS011;8175;49.326;12.690;2023-05-10T10:02:47;3.80;;;3.50;;
16139;SDS011;8175;49.326;12.690;2023-05-10T10:05:18;3.90;;;3.60;;
16139;SDS011;8175;49.326;12.690;2023-05-10T10:07:45;4.63;;;4.23;;
16139;SDS011;8175;49.326;12.690;2023-05-10T10:10:10;3.97;;;3.67;;
16139;SDS011;8175;49.326;12.690;2023-05-10T10:12:38;4.00;;;3.57;;
16139;SDS011;8175;49.326;12.690;2023-05-10T10:15:05;3.20;;;3.00;;
16139;SDS011;8175;49.326;12.690;2023-05-10T10:17:32;5.50;;;2.90;;
16139;SDS011;8175;49.326;12.690;2023-05-10T10:20:02;3.60;;;3.30;;
16139;SDS011;8175;49.326;12.690;2023-05-10T10:22:28;3.10;;;2.87;;
16139;SDS011;8175;49.326;12.690;2023-05-10T10:24:53;3.63;;;3.33;;
16139;SDS011;8175;49.326;12.690;2023-05-10T10:27:23;3.87;;;3.47;;
16139;SDS011;8175;49.326;12.690;2023-05-10T10:30:00;4.37;;;3.37;;
16139;SDS011;8175;49.326;12.690;2023-05-10T10:32:30;3.03;;;2.80;;
16139;SDS011;8175;49.326;12.690;2023-05-10T10:35:11;2.87;;;2.67;;
16139;SDS011;8175;49.326;12.690;2023-05-10T10:37:44;2.80;;;2.60;;
16139;SDS011;8175;49.326;12.690;2023-05-10T10:40:23;3.73;;;2.77;;
16139;SDS011;8175;49.326;12.690;2023-05-10T10:42:51;3.10;;;2.80;;
16139;SDS011;8175;49.326;12.690;2023-05-10T10:45:18;3.03;;;2.83;;
16139;SDS011;8175;49.326;12.690;2023-05-10T10:47:45;4.10;;;3.80;;
16139;SDS011;8175;49.326;12.690;2023-05-10T10:50:11;3.47;;;3.17;;
16139;SDS011;8175;49.326;12.690;2023-05-10T10:52:41;4.17;;;3.27;;
16139;SDS011;8175;49.326;12.690;2023-05-10T11:03:08;4.73;;;3.70;;
16139;SDS011;8175;49.326;12.690;2023-05-10T11:05:35;3.17;;;2.70;;
16139;SDS011;8175;49.326;12.690;2023-05-10T11:08:09;2.97;;;2.67;;
16139;SDS011;8175;49.326;12.690;2023-05-10T11:10:49;3.90;;;2.87;;
16139;SDS011;8175;49.326;12.690;2023-05-10T11:15:56;2.80;;;2.60;;
16139;SDS011;8175;49.326;12.690;2023-05-10T11:18:26;2.47;;;2.28;;
16139;SDS011;8175;49.326;12.690;2023-05-10T11:20:57;3.27;;;2.00;;
16139;SDS011;8175;49.326;12.690;2023-05-10T11:26:11;2.55;;;2.35;;
16139;SDS011;8175;49.326;12.690;2023-05-10T11:28:41;2.87;;;2.67;;
16139;SDS011;8175;49.326;12.690;2023-05-10T11:31:07;2.53;;;2.33;;
16139;SDS011;8175;49.326;12.690;2023-05-10T11:33:49;2.40;;;2.20;;
16139;SDS011;8175;49.326;12.690;2023-05-10T11:36:17;2.22;;;2.03;;
16139;SDS011;8175;49.326;12.690;2023-05-10T11:38:44;3.00;;;2.80;;
16139;SDS011;8175;49.326;12.690;2023-05-10T11:41:10;2.80;;;2.60;;
16139;SDS011;8175;49.326;12.690;2023-05-10T11:43:40;2.43;;;2.23;;
16139;SDS011;8175;49.326;12.690;2023-05-10T11:46:07;2.77;;;2.57;;
16139;SDS011;8175;49.326;12.690;2023-05-10T11:48:35;2.70;;;2.50;;
16139;SDS011;8175;49.326;12.690;2023-05-10T11:51:01;2.93;;;2.70;;
16139;SDS011;8175;49.326;12.690;2023-05-10T11:53:28;3.20;;;2.90;;
16139;SDS011;8175;49.326;12.690;2023-05-10T11:56:02;2.77;;;2.57;;
16139;SDS011;8175;49.326;12.690;2023-05-10T11:58:29;2.20;;;2.10;;
16139;SDS011;8175;49.326;12.690;2023-05-10T12:00:55;3.13;;;2.83;;
16139;SDS011;8175;49.326;12.690;2023-05-10T12:03:21;3.00;;;2.80;;
16139;SDS011;8175;49.326;12.690;2023-05-10T12:05:47;2.80;;;2.60;;
16139;SDS011;8175;49.326;12.690;2023-05-10T12:08:13;3.57;;;3.27;;
16139;SDS011;8175;49.326;12.690;2023-05-10T12:10:40;3.27;;;2.83;;
16139;SDS011;8175;49.326;12.690;2023-05-10T12:13:10;3.37;;;3.07;;
16139;SDS011;8175;49.326;12.690;2023-05-10T12:15:38;3.63;;;2.93;;
16139;SDS011;8175;49.326;12.690;2023-05-10T12:18:03;3.40;;;3.10;;
16139;SDS011;8175;49.326;12.690;2023-05-10T12:20:30;2.60;;;2.40;;
16139;SDS011;8175;49.326;12.690;2023-05-10T12:22:56;2.87;;;2.67;;
16139;SDS011;8175;49.326;12.690;2023-05-10T12:25:24;3.13;;;2.90;;
16139;SDS011;8175;49.326;12.690;2023-05-10T12:27:56;2.83;;;2.63;;
16139;SDS011;8175;49.326;12.690;2023-05-10T12:30:26;2.67;;;2.47;;
16139;SDS011;8175;49.326;12.690;2023-05-10T12:32:53;3.50;;;2.60;;
16139;SDS011;8175;49.326;12.690;2023-05-10T12:35:24;2.40;;;2.20;;
16139;SDS011;8175;49.326;12.690;2023-05-10T12:37:52;2.73;;;2.53;;
16139;SDS011;8175;49.326;12.690;2023-05-10T12:40:18;3.07;;;2.57;;
16139;SDS011;8175;49.326;12.690;2023-05-10T12:42:44;2.07;;;1.97;;
16139;SDS011;8175;49.326;12.690;2023-05-10T12:45:10;2.60;;;2.40;;
16139;SDS011;8175;49.326;12.690;2023-05-10T12:47:36;2.00;;;1.90;;
16139;SDS011;8175;49.326;12.690;2023-05-10T12:50:02;1.87;;;1.77;;
16139;SDS011;8175;49.326;12.690;2023-05-10T12:52:29;2.03;;;1.90;;
16139;SDS011;8175;49.326;12.690;2023-05-10T12:54:57;1.70;;;1.60;;
16139;SDS011;8175;49.326;12.690;2023-05-10T12:57:24;1.20;;;1.10;;
16139;SDS011;8175;49.326;12.690;2023-05-10T12:59:50;1.27;;;1.17;;
16139;SDS011;8175;49.326;12.690;2023-05-10T13:02:15;1.43;;;1.33;;
16139;SDS011;8175;49.326;12.690;2023-05-10T13:04:43;1.50;;;1.40;;
16139;SDS011;8175;49.326;12.690;2023-05-10T13:07:09;1.20;;;1.20;;
16139;SDS011;8175;49.326;12.690;2023-05-10T13:09:35;1.30;;;1.20;;
16139;SDS011;8175;49.326;12.690;2023-05-10T13:12:01;1.20;;;1.10;;
16139;SDS011;8175;49.326;12.690;2023-05-10T13:14:27;1.20;;;1.10;;
16139;SDS011;8175;49.326;12.690;2023-05-10T13:16:52;1.70;;;1.60;;
16139;SDS011;8175;49.326;12.690;2023-05-10T13:19:18;1.20;;;1.20;;
16139;SDS011;8175;49.326;12.690;2023-05-10T13:21:44;1.10;;;1.10;;
16139;SDS011;8175;49.326;12.690;2023-05-10T13:24:10;1.45;;;1.35;;
16139;SDS011;8175;49.326;12.690;2023-05-10T13:26:39;1.85;;;1.75;;
16139;SDS011;8175;49.326;12.690;2023-05-10T13:29:05;1.42;;;1.33;;
16139;SDS011;8175;49.326;12.690;2023-05-10T13:31:31;1.90;;;1.80;;
16139;SDS011;8175;49.326;12.690;2023-05-10T13:33:57;1.67;;;1.58;;
16139;SDS011;8175;49.326;12.690;2023-05-10T13:36:23;1.80;;;1.70;;
16139;SDS011;8175;49.326;12.690;2023-05-10T13:38:48;1.80;;;1.70;;
16139;SDS011;8175;49.326;12.690;2023-05-10T13:41:14;1.40;;;1.30;;
16139;SDS011;8175;49.326;12.690;2023-05-10T13:43:39;2.90;;;1.70;;
16139;SDS011;8175;49.326;12.690;2023-05-10T13:46:05;2.13;;;1.73;;
16139;SDS011;8175;49.326;12.690;2023-05-10T13:48:31;1.90;;;1.80;;
16139;SDS011;8175;49.326;12.690;2023-05-10T13:50:56;1.50;;;1.40;;
16139;SDS011;8175;49.326;12.690;2023-05-10T13:53:22;1.70;;;1.60;;
16139;SDS011;8175;49.326;12.690;2023-05-10T13:55:48;1.67;;;1.57;;
16139;SDS011;8175;49.326;12.690;2023-05-10T13:58:14;1.50;;;1.40;;
16139;SDS011;8175;49.326;12.690;2023-05-10T14:00:39;1.40;;;1.30;;
16139;SDS011;8175;49.326;12.690;2023-05-10T14:03:05;1.60;;;1.50;;
16139;SDS011;8175;49.326;12.690;2023-05-10T14:05:31;2.67;;;1.70;;
16139;SDS011;8175;49.326;12.690;2023-05-10T14:07:57;1.40;;;1.30;;
16139;SDS011;8175;49.326;12.690;2023-05-10T14:10:23;1.77;;;1.67;;
16139;SDS011;8175;49.326;12.690;2023-05-10T14:12:49;1.53;;;1.43;;
16139;SDS011;8175;49.326;12.690;2023-05-10T14:15:15;1.80;;;1.50;;
16139;SDS011;8175;49.326;12.690;2023-05-10T14:17:41;1.43;;;1.33;;
16139;SDS011;8175;49.326;12.690;2023-05-10T14:20:07;2.50;;;2.30;;
16139;SDS011;8175;49.326;12.690;2023-05-10T14:22:33;2.47;;;2.17;;
16139;SDS011;8175;49.326;12.690;2023-05-10T14:24:59;2.00;;;1.90;;
16139;SDS011;8175;49.326;12.690;2023-05-10T14:27:25;1.83;;;1.73;;
16139;SDS011;8175;49.326;12.690;2023-05-10T14:29:51;2.63;;;2.43;;
16139;SDS011;8175;49.326;12.690;2023-05-10T14:32:16;2.23;;;2.00;;
16139;SDS011;8175;49.326;12.690;2023-05-10T14:34:42;2.30;;;2.10;;
16139;SDS011;8175;49.326;12.690;2023-05-10T14:37:09;2.47;;;2.17;;
16139;SDS011;8175;49.326;12.690;2023-05-10T14:39:36;2.40;;;2.20;;
16139;SDS011;8175;49.326;12.690;2023-05-10T14:42:01;2.97;;;2.53;;
16139;SDS011;8175;49.326;12.690;2023-05-10T14:44:27;3.10;;;2.67;;
16139;SDS011;8175;49.326;12.690;2023-05-10T14:46:53;2.40;;;2.20;;
16139;SDS011;8175;49.326;12.690;2023-05-10T14:49:19;4.47;;;2.47;;
16139;SDS011;8175;49.326;12.690;2023-05-10T14:51:47;2.73;;;2.43;;
16139;SDS011;8175;49.326;12.690;2023-05-10T14:54:13;3.23;;;2.90;;
16139;SDS011;8175;49.326;12.690;2023-05-10T14:56:38;3.27;;;3.03;;
16139;SDS011;8175;49.326;12.690;2023-05-10T14:59:06;3.67;;;3.37;;
16139;SDS011;8175;49.326;12.690;2023-05-10T15:01:32;3.10;;;2.80;;
16139;SDS011;8175;49.326;12.690;2023-05-10T15:03:59;3.00;;;2.80;;
16139;SDS011;8175;49.326;12.690;2023-05-10T15:06:34;6.00;;;2.50;;
16139;SDS011;8175;49.326;12.690;2023-05-10T15:09:00;2.50;;;2.30;;
16139;SDS011;8175;49.326;12.690;2023-05-10T15:11:28;3.50;;;3.10;;
16139;SDS011;8175;49.326;12.690;2023-05-10T15:13:54;3.43;;;3.13;;
16139;SDS011;8175;49.326;12.690;2023-05-10T15:16:20;2.90;;;2.70;;
16139;SDS011;8175;49.326;12.690;2023-05-10T15:18:46;3.87;;;2.87;;
16139;SDS011;8175;49.326;12.690;2023-05-10T15:21:11;3.43;;;3.13;;
16139;SDS011;8175;49.326;12.690;2023-05-10T15:23:37;3.13;;;2.83;;
16139;SDS011;8175;49.326;12.690;2023-05-10T15:26:03;3.37;;;2.50;;
16139;SDS011;8175;49.326;12.690;2023-05-10T15:28:29;3.07;;;2.87;;
16139;SDS011;8175;49.326;12.690;2023-05-10T15:30:54;2.73;;;2.53;;
16139;SDS011;8175;49.326;12.690;2023-05-10T15:33:21;2.40;;;2.30;;
16139;SDS011;8175;49.326;12.690;2023-05-10T15:35:46;3.40;;;3.13;;
16139;SDS011;8175;49.326;12.690;2023-05-10T15:38:12;3.43;;;3.23;;
16139;SDS011;8175;49.326;12.690;2023-05-10T15:40:38;3.30;;;3.00;;
16139;SDS011;8175;49.326;12.690;2023-05-10T15:43:03;3.30;;;3.00;;
16139;SDS011;8175;49.326;12.690;2023-05-10T15:45:30;3.30;;;3.00;;
16139;SDS011;8175;49.326;12.690;2023-05-10T15:47:55;2.80;;;2.60;;
16139;SDS011;8175;49.326;12.690;2023-05-10T15:50:22;2.93;;;2.73;;
16139;SDS011;8175;49.326;12.690;2023-05-10T15:52:47;3.63;;;2.27;;
16139;SDS011;8175;49.326;12.690;2023-05-10T15:55:13;3.27;;;2.97;;
16139;SDS011;8175;49.326;12.690;2023-05-10T15:57:40;2.87;;;2.67;;
16139;SDS011;8175;49.326;12.690;2023-05-10T16:00:06;3.60;;;3.30;;
16139;SDS011;8175;49.326;12.690;2023-05-10T16:02:34;4.37;;;3.03;;
16139;SDS011;8175;49.326;12.690;2023-05-10T16:04:59;5.17;;;4.67;;
16139;SDS011;8175;49.326;12.690;2023-05-10T16:07:25;4.40;;;4.10;;
16139;SDS011;8175;49.326;12.690;2023-05-10T16:09:51;4.20;;;3.80;;
16139;SDS011;8175;49.326;12.690;2023-05-10T16:12:16;6.10;;;5.50;;
16139;SDS011;8175;49.326;12.690;2023-05-10T16:14:42;5.63;;;5.13;;
16139;SDS011;8175;49.326;12.690;2023-05-10T16:17:08;5.77;;;5.23;;
16139;SDS011;8175;49.326;12.690;2023-05-10T16:19:33;5.93;;;5.33;;
16139;SDS011;8175;49.326;12.690;2023-05-10T16:21:59;5.23;;;4.80;;
16139;SDS011;8175;49.326;12.690;2023-05-10T16:24:25;10.70;;;5.40;;
16139;SDS011;8175;49.326;12.690;2023-05-10T16:26:51;5.97;;;5.43;;
16139;SDS011;8175;49.326;12.690;2023-05-10T16:29:16;6.27;;;5.77;;
16139;SDS011;8175;49.326;12.690;2023-05-10T16:31:42;57.23;;;36.33;;
16139;SDS011;8175;49.326;12.690;2023-05-10T16:34:07;9.87;;;8.83;;
16139;SDS011;8175;49.326;12.690;2023-05-10T16:36:33;9.40;;;8.07;;
16139;SDS011;8175;49.326;12.690;2023-05-10T16:38:59;10.30;;;7.30;;
16139;SDS011;8175;49.326;12.690;2023-05-10T16:41:25;9.07;;;7.77;;
16139;SDS011;8175;49.326;12.690;2023-05-10T16:43:50;6.60;;;6.00;;
16139;SDS011;8175;49.326;12.690;2023-05-10T16:46:16;7.70;;;6.83;;
16139;SDS011;8175;49.326;12.690;2023-05-10T16:48:42;6.93;;;6.30;;
16139;SDS011;8175;49.326;12.690;2023-05-10T16:51:07;8.63;;;7.90;;
16139;SDS011;8175;49.326;12.690;2023-05-10T16:53:33;8.40;;;7.70;;
16139;SDS011;8175;49.326;12.690;2023-05-10T16:56:00;7.83;;;7.13;;
16139;SDS011;8175;49.326;12.690;2023-05-10T16:58:25;7.70;;;7.00;;
16139;SDS011;8175;49.326;12.690;2023-05-10T17:00:51;7.47;;;6.83;;
16139;SDS011;8175;49.326;12.690;2023-05-10T17:03:17;8.43;;;7.63;;
16139;SDS011;8175;49.326;12.690;2023-05-10T17:05:42;7.43;;;6.73;;
16139;SDS011;8175;49.326;12.690;2023-05-10T17:08:08;8.20;;;7.40;;
16139;SDS011;8175;49.326;12.690;2023-05-10T17:10:34;8.27;;;7.57;;
16139;SDS011;8175;49.326;12.690;2023-05-10T17:13:00;8.37;;;7.57;;
16139;SDS011;8175;49.326;12.690;2023-05-10T17:15:26;10.00;;;9.07;;
16139;SDS011;8175;49.326;12.690;2023-05-10T17:17:52;10.27;;;9.37;;
16139;SDS011;8175;49.326;12.690;2023-05-10T17:20:19;8.83;;;8.03;;
16139;SDS011;8175;49.326;12.690;2023-05-10T17:22:44;9.70;;;8.80;;
16139;SDS011;8175;49.326;12.690;2023-05-10T17:25:10;8.73;;;7.90;;
16139;SDS011;8175;49.326;12.690;2023-05-10T17:27:36;9.73;;;8.83;;
16139;SDS011;8175;49.326;12.690;2023-05-10T17:30:01;10.03;;;9.03;;
16139;SDS011;8175;49.326;12.690;2023-05-10T17:32:27;8.77;;;7.90;;
16139;SDS011;8175;49.326;12.690;2023-05-10T17:34:53;9.43;;;8.47;;
16139;SDS011;8175;49.326;12.690;2023-05-10T17:37:18;9.20;;;8.30;;
16139;SDS011;8175;49.326;12.690;2023-05-10T17:39:44;11.50;;;9.70;;
16139;SDS011;8175;49.326;12.690;2023-05-10T17:42:10;10.73;;;9.63;;
16139;SDS011;8175;49.326;12.690;2023-05-10T17:44:36;9.10;;;8.20;;
16139;SDS011;8175;49.326;12.690;2023-05-10T17:47:02;8.67;;;7.87;;
16139;SDS011;8175;49.326;12.690;2023-05-10T17:49:27;9.30;;;8.40;;
16139;SDS011;8175;49.326;12.690;2023-05-10T17:51:53;9.80;;;8.90;;
16139;SDS011;8175;49.326;12.690;2023-05-10T17:54:19;10.23;;;8.97;;
16139;SDS011;8175;49.326;12.690;2023-05-10T17:56:44;8.93;;;8.03;;
16139;SDS011;8175;49.326;12.690;2023-05-10T17:59:10;9.77;;;8.87;;
16139;SDS011;8175;49.326;12.690;2023-05-10T18:01:35;9.07;;;8.17;;
16139;SDS011;8175;49.326;12.690;2023-05-10T18:04:01;9.13;;;8.17;;
16139;SDS011;8175;49.326;12.690;2023-05-10T18:06:27;8.20;;;7.50;;
16139;SDS011;8175;49.326;12.690;2023-05-10T18:08:52;8.70;;;7.90;;
16139;SDS011;8175;49.326;12.690;2023-05-10T18:11:18;9.00;;;7.77;;
16139;SDS011;8175;49.326;12.690;2023-05-10T18:13:44;8.13;;;7.20;;
16139;SDS011;8175;49.326;12.690;2023-05-10T18:16:09;8.07;;;7.33;;
16139;SDS011;8175;49.326;12.690;2023-05-10T18:18:37;10.03;;;8.10;;